createdAt,value
2022-08-22T03:50:15.319Z,0
2022-08-22T03:51:15.560Z,0
2022-08-22T03:52:15.035Z,0
2022-08-22T03:53:25.968Z,0
2022-08-22T03:54:15.756Z,0
2022-08-22T03:55:15.502Z,0
2022-08-22T03:56:15.218Z,0
2022-08-22T03:57:15.224Z,0
2022-08-22T03:58:34.544Z,0
2022-08-22T03:59:20.615Z,0
2022-08-22T04:00:15.424Z,0
2022-08-22T04:01:15.435Z,0
2022-08-22T04:02:52.011Z,0
2022-08-22T04:03:15.398Z,0
2022-08-22T04:04:15.375Z,0
2022-08-22T04:05:22.353Z,0
2022-08-22T04:06:22.683Z,0
2022-08-22T04:07:42.760Z,0
2022-08-22T04:08:23.082Z,0
2022-08-22T04:09:15.879Z,0
2022-08-22T04:10:14.568Z,0
2022-08-22T04:11:15.040Z,5
2022-08-22T04:12:16.044Z,5
2022-08-22T04:13:15.299Z,5
2022-08-22T04:14:15.007Z,5
2022-08-22T04:15:15.006Z,5
2022-08-22T04:16:14.741Z,5
2022-08-22T04:17:15.493Z,5
2022-08-22T04:18:17.897Z,5
2022-08-22T04:19:17.747Z,5
2022-08-22T04:20:18.782Z,10
2022-08-22T04:21:14.689Z,10
2022-08-22T04:22:15.179Z,10
2022-08-22T04:23:14.914Z,10
2022-08-22T04:24:14.638Z,10
2022-08-22T04:25:17.451Z,10
2022-08-22T04:26:21.578Z,10
2022-08-22T04:27:14.605Z,15
2022-08-22T04:28:14.595Z,15
2022-08-22T04:29:14.845Z,15
2022-08-22T04:30:14.840Z,15
2022-08-22T04:31:15.084Z,15
2022-08-22T04:32:19.334Z,15
2022-08-22T04:33:15.067Z,15
2022-08-22T04:34:15.033Z,15
2022-08-22T04:35:14.853Z,20
2022-08-22T04:36:15.018Z,20
2022-08-22T04:37:14.757Z,20
2022-08-22T04:38:15.937Z,20
2022-08-22T04:39:14.480Z,20
2022-08-22T04:40:15.238Z,20
2022-08-22T04:41:15.221Z,20
2022-08-22T04:42:40.897Z,25
2022-08-22T04:43:14.694Z,25
2022-08-22T04:44:17.634Z,25
2022-08-22T04:45:15.586Z,25
2022-08-22T04:46:15.157Z,25
2022-08-22T04:47:14.638Z,25
2022-08-22T04:48:14.387Z,30
2022-08-22T04:49:14.614Z,30
2022-08-22T04:50:14.638Z,30
2022-08-22T04:51:14.441Z,30
2022-08-22T04:52:15.092Z,30
2022-08-22T04:53:14.823Z,30
2022-08-22T04:54:14.648Z,30
2022-08-22T04:55:14.814Z,35
2022-08-22T04:56:17.091Z,35
2022-08-22T04:57:14.525Z,35
2022-08-22T04:58:15.365Z,35
2022-08-22T04:59:15.085Z,35
2022-08-22T05:00:14.504Z,35
2022-08-22T05:01:14.791Z,35
2022-08-22T05:02:14.462Z,35
2022-08-22T05:03:14.210Z,40
2022-08-22T05:04:14.708Z,40
2022-08-22T05:05:22.349Z,40
2022-08-22T05:06:14.686Z,40
2022-08-22T05:07:14.678Z,40
2022-08-22T05:08:19.158Z,45
2022-08-22T05:09:20.436Z,45
2022-08-22T05:10:21.100Z,45
2022-08-22T05:11:14.125Z,45
2022-08-22T05:12:14.621Z,45
2022-08-22T05:13:14.614Z,50
2022-08-22T05:14:14.342Z,50
2022-08-22T05:15:23.016Z,50
2022-08-22T05:16:14.100Z,50
2022-08-22T05:17:17.995Z,50
2022-08-22T05:18:14.589Z,50
2022-08-22T05:19:32.017Z,55
2022-08-22T05:20:14.553Z,55
2022-08-22T05:21:20.773Z,55
2022-08-22T05:22:14.522Z,55
2022-08-22T05:23:24.315Z,60
2022-08-22T05:24:14.242Z,60
2022-08-22T05:25:13.967Z,60
2022-08-22T05:26:15.112Z,60
2022-08-22T05:27:14.460Z,60
2022-08-22T05:28:14.542Z,60
2022-08-22T05:29:14.450Z,65
2022-08-22T05:30:15.287Z,65
2022-08-22T05:31:14.414Z,65
2022-08-22T05:32:14.408Z,70
2022-08-22T05:33:13.887Z,70
2022-08-22T05:34:14.386Z,70
2022-08-22T05:35:13.875Z,70
2022-08-22T05:36:14.113Z,70
2022-08-22T05:37:17.609Z,70
2022-08-22T05:38:13.837Z,75
2022-08-22T05:39:13.830Z,75
2022-08-22T05:40:14.225Z,75
2022-08-22T05:41:13.847Z,75
2022-08-22T05:42:13.809Z,75
2022-08-22T05:43:14.318Z,75
2022-08-22T05:44:14.032Z,75
2022-08-22T05:45:19.288Z,80
2022-08-22T05:46:14.284Z,80
2022-08-22T05:47:14.029Z,80
2022-08-22T05:48:13.999Z,85
2022-08-22T05:49:13.732Z,85
2022-08-22T05:50:14.227Z,90
2022-08-22T05:51:14.413Z,90
2022-08-22T05:52:15.989Z,90
2022-08-22T05:53:14.543Z,90
2022-08-22T05:54:14.182Z,95
2022-08-22T05:55:13.940Z,95
2022-08-22T05:56:14.176Z,100
2022-08-22T05:57:17.225Z,105
2022-08-22T05:58:13.899Z,105
2022-08-22T05:59:17.655Z,110
2022-08-22T06:00:14.059Z,115
2022-08-22T06:01:14.145Z,120
2022-08-22T06:02:14.549Z,120
2022-08-22T06:03:13.871Z,125
2022-08-22T06:04:14.165Z,125
2022-08-22T06:05:19.278Z,130
2022-08-22T06:06:13.587Z,130
2022-08-22T06:07:13.973Z,130
2022-08-22T06:08:13.550Z,135
2022-08-22T06:09:13.554Z,135
2022-08-22T06:10:13.532Z,135
2022-08-22T06:11:13.793Z,135
2022-08-22T06:12:24.544Z,140
2022-08-22T06:13:27.909Z,140
2022-08-22T06:14:20.148Z,140
2022-08-22T06:15:25.959Z,140
2022-08-22T06:16:16.704Z,140
2022-08-22T06:17:13.968Z,140
2022-08-22T06:18:13.467Z,140
2022-08-22T06:19:28.886Z,145
2022-08-22T06:20:13.937Z,145
2022-08-22T06:21:14.200Z,145
2022-08-22T06:22:21.210Z,145
2022-08-22T06:23:13.914Z,145
2022-08-22T06:24:13.924Z,145
2022-08-22T06:25:14.157Z,150
2022-08-22T06:26:28.084Z,150
2022-08-22T06:27:13.113Z,150
2022-08-22T06:28:13.640Z,150
2022-08-22T06:29:13.353Z,150
2022-08-22T06:30:13.356Z,150
2022-08-22T06:31:14.119Z,150
2022-08-22T06:32:13.581Z,150
2022-08-22T06:33:19.235Z,150
2022-08-22T06:34:13.316Z,150
2022-08-22T06:35:15.406Z,150
2022-08-22T06:36:13.552Z,150
2022-08-22T06:37:13.797Z,150
2022-08-22T06:38:13.545Z,150
2022-08-22T06:39:13.790Z,150
2022-08-22T06:40:14.162Z,155
2022-08-22T06:41:14.043Z,155
2022-08-22T06:42:19.423Z,160
2022-08-22T06:43:13.239Z,160
2022-08-22T06:44:13.241Z,165
2022-08-22T06:45:13.752Z,170
2022-08-22T06:46:13.733Z,180
2022-08-22T06:47:13.223Z,190
2022-08-22T06:48:14.597Z,185
2022-08-22T06:49:13.457Z,205
2022-08-22T06:50:20.243Z,250
2022-08-22T06:51:13.968Z,265
2022-08-22T06:52:13.433Z,280
2022-08-22T06:53:13.677Z,255
2022-08-22T06:54:13.470Z,265
2022-08-22T06:55:13.676Z,250
2022-08-22T06:56:15.639Z,265
2022-08-22T06:57:13.156Z,265
2022-08-22T06:58:13.766Z,250
2022-08-22T06:59:13.412Z,250
2022-08-22T07:00:13.409Z,250
2022-08-22T07:01:20.706Z,245
2022-08-22T07:02:13.678Z,220
2022-08-22T07:03:13.894Z,220
2022-08-22T07:04:13.628Z,230
2022-08-22T07:05:13.364Z,225
2022-08-22T07:06:13.885Z,230
2022-08-22T07:07:13.351Z,260
2022-08-22T07:08:13.607Z,285
2022-08-22T07:09:16.014Z,290
2022-08-22T07:10:13.082Z,290
2022-08-22T07:11:13.099Z,295
2022-08-22T07:12:13.840Z,285
2022-08-22T07:13:13.323Z,275
2022-08-22T07:14:13.067Z,260
2022-08-22T07:15:13.316Z,255
2022-08-22T07:16:13.979Z,240
2022-08-22T07:17:14.232Z,225
2022-08-22T07:18:13.982Z,210
2022-08-22T07:19:13.976Z,195
2022-08-22T07:20:14.232Z,195
2022-08-22T07:21:17.180Z,190
2022-08-22T07:22:13.968Z,190
2022-08-22T07:23:14.228Z,190
2022-08-22T07:24:14.729Z,190
2022-08-22T07:25:14.469Z,185
2022-08-22T07:26:14.205Z,185
2022-08-22T07:27:16.032Z,185
2022-08-22T07:28:36.768Z,190
2022-08-22T07:29:25.475Z,190
2022-08-22T07:30:29.621Z,195
2022-08-22T07:31:20.117Z,195
2022-08-22T07:32:14.731Z,195
2022-08-22T07:33:35.785Z,190
2022-08-22T07:34:14.490Z,190
2022-08-22T07:35:14.715Z,195
2022-08-22T07:36:14.459Z,195
2022-08-22T07:37:13.943Z,200
2022-08-22T07:38:16.149Z,195
2022-08-22T07:39:23.586Z,195
2022-08-22T07:40:14.898Z,195
2022-08-22T07:41:14.441Z,190
2022-08-22T07:42:14.266Z,190
2022-08-22T07:43:14.211Z,190
2022-08-22T07:44:16.943Z,190
2022-08-22T07:45:14.711Z,190
2022-08-22T07:46:15.107Z,185
2022-08-22T07:47:14.423Z,185
2022-08-22T07:48:19.731Z,180
2022-08-22T07:49:19.335Z,180
2022-08-22T07:50:13.911Z,175
2022-08-22T07:51:14.695Z,175
2022-08-22T07:52:14.896Z,175
2022-08-22T07:53:18.027Z,170
2022-08-22T07:54:13.660Z,170
2022-08-22T07:55:13.912Z,165
2022-08-22T07:56:14.404Z,165
2022-08-22T07:57:14.167Z,165
2022-08-22T07:58:13.901Z,160
2022-08-22T07:59:21.247Z,160
2022-08-22T08:00:13.895Z,160
2022-08-22T08:01:14.193Z,160
2022-08-22T08:02:14.149Z,160
2022-08-22T08:03:14.604Z,160
2022-08-22T08:04:14.392Z,160
2022-08-22T08:05:14.137Z,160
2022-08-22T08:06:14.149Z,160
2022-08-22T08:07:14.397Z,160
2022-08-22T08:08:19.837Z,165
2022-08-22T08:09:14.129Z,165
2022-08-22T08:10:19.645Z,160
2022-08-22T08:11:14.392Z,160
2022-08-22T08:12:14.379Z,160
2022-08-22T08:13:13.883Z,165
2022-08-22T08:14:18.095Z,165
2022-08-22T08:15:13.862Z,170
2022-08-22T08:16:14.111Z,175
2022-08-22T08:17:14.628Z,175
2022-08-22T08:18:14.362Z,180
2022-08-22T08:19:14.382Z,185
2022-08-22T08:20:14.104Z,185
2022-08-22T08:21:14.117Z,190
2022-08-22T08:22:14.361Z,195
2022-08-22T08:23:14.361Z,195
2022-08-22T08:24:14.896Z,195
2022-08-22T08:25:13.835Z,205
2022-08-22T08:26:14.102Z,210
2022-08-22T08:27:14.086Z,220
2022-08-22T08:28:20.595Z,225
2022-08-22T08:29:14.089Z,220
2022-08-22T08:30:19.950Z,225
2022-08-22T08:31:14.616Z,225
2022-08-22T08:32:13.826Z,225
2022-08-22T08:33:34.597Z,220
2022-08-22T08:34:14.062Z,225
2022-08-22T08:35:17.196Z,225
2022-08-22T08:36:14.314Z,220
2022-08-22T08:37:17.029Z,215
2022-08-22T08:38:13.815Z,215
2022-08-22T08:39:14.065Z,220
2022-08-22T08:40:14.094Z,230
2022-08-22T08:41:13.796Z,220
2022-08-22T08:42:14.054Z,210
2022-08-22T08:43:19.126Z,205
2022-08-22T08:44:13.784Z,205
2022-08-22T08:45:13.786Z,200
2022-08-22T08:46:15.855Z,200
2022-08-22T08:47:15.246Z,200
2022-08-22T08:48:14.337Z,210
2022-08-22T08:49:15.848Z,215
2022-08-22T08:50:16.138Z,220
2022-08-22T08:51:17.824Z,225
2022-08-22T08:52:14.472Z,225
2022-08-22T08:53:15.547Z,235
2022-08-22T08:54:14.592Z,245
2022-08-22T08:55:32.100Z,250
2022-08-22T08:56:27.508Z,255
2022-08-22T09:40:34.302Z,295
2022-08-22T09:41:43.637Z,300
2022-08-22T09:42:49.642Z,300
2022-08-22T09:43:54.620Z,300
2022-08-22T09:44:50.461Z,295
2022-08-22T09:45:50.000Z,295
2022-08-22T09:46:46.200Z,290
2022-08-22T09:47:48.485Z,290
2022-08-22T09:48:47.248Z,290
2022-08-22T09:49:46.848Z,295
2022-08-22T09:50:48.299Z,295
2022-08-22T09:51:44.560Z,300
2022-08-22T09:52:47.347Z,300
2022-08-22T09:53:43.381Z,300
2022-08-22T09:54:45.949Z,305
2022-08-22T09:55:46.604Z,305
2022-08-22T09:56:45.355Z,305
2022-08-22T09:57:44.097Z,300
2022-08-22T09:58:49.996Z,300
2022-08-22T09:59:45.453Z,305
2022-08-22T10:00:45.182Z,305
2022-08-22T10:01:49.064Z,310
2022-08-22T10:02:54.933Z,315
2022-08-22T10:03:46.376Z,320
2022-08-22T10:04:46.538Z,325
2022-08-22T10:05:52.551Z,330
2022-08-22T10:06:45.753Z,335
2022-08-22T10:07:44.407Z,340
2022-08-22T10:08:48.162Z,345
2022-08-22T10:09:48.727Z,355
2022-08-22T10:10:47.430Z,360
2022-08-22T10:11:51.433Z,360
2022-08-22T10:12:53.043Z,360
2022-08-22T10:13:44.032Z,365
2022-08-22T10:14:52.810Z,365
2022-08-22T10:15:44.270Z,370
2022-08-22T10:16:44.773Z,370
2022-08-22T10:17:50.341Z,350
2022-08-22T10:19:03.000Z,385
2022-08-22T10:19:45.027Z,395
2022-08-22T10:20:50.642Z,395
2022-08-22T10:21:44.965Z,400
2022-08-22T10:22:49.053Z,405
2022-08-22T10:23:48.308Z,410
2022-08-22T10:24:53.603Z,410
2022-08-22T10:25:48.953Z,415
2022-08-22T10:26:50.652Z,410
2022-08-22T10:27:44.319Z,415
2022-08-22T10:28:45.458Z,415
2022-08-22T10:29:43.611Z,415
2022-08-22T10:30:45.614Z,410
2022-08-22T10:32:17.028Z,410
2022-08-22T10:32:47.425Z,410
2022-08-22T10:33:49.333Z,410
2022-08-22T10:34:45.158Z,410
2022-08-22T10:35:43.819Z,415
2022-08-22T10:36:44.541Z,410
2022-08-22T10:37:55.697Z,410
2022-08-22T10:38:54.749Z,415
2022-08-22T10:39:48.638Z,410
2022-08-22T10:40:50.075Z,405
2022-08-22T10:41:47.664Z,395
2022-08-22T10:42:46.821Z,385
2022-08-22T10:43:47.695Z,370
2022-08-22T10:44:46.497Z,360
2022-08-22T10:45:45.545Z,360
2022-08-22T10:46:48.400Z,375
2022-08-22T10:47:43.699Z,380
2022-08-22T10:48:44.631Z,385
2022-08-22T10:49:43.621Z,385
2022-08-22T10:50:47.518Z,390
2022-08-22T10:51:46.707Z,390
2022-08-22T10:52:43.744Z,390
2022-08-22T10:53:44.207Z,390
2022-08-22T10:54:45.355Z,390
2022-08-22T10:55:43.930Z,390
2022-08-22T10:56:48.491Z,390
2022-08-22T10:57:47.413Z,390
2022-08-22T10:58:49.106Z,390
2022-08-22T10:59:45.847Z,390
2022-08-22T11:00:55.252Z,380
2022-08-22T11:01:50.751Z,380
2022-08-22T11:02:49.435Z,390
2022-08-22T11:03:46.858Z,390
2022-08-22T11:04:45.931Z,400
2022-08-22T11:05:47.487Z,405
2022-08-22T11:06:46.883Z,400
2022-08-22T11:07:53.190Z,400
2022-08-22T11:08:45.535Z,400
2022-08-22T11:09:45.878Z,395
2022-08-22T11:10:45.903Z,395
2022-08-22T11:11:44.996Z,405
2022-08-22T11:12:49.313Z,415
2022-08-22T11:13:52.086Z,390
2022-08-22T11:14:46.926Z,365
2022-08-22T11:15:44.567Z,360
2022-08-22T11:16:57.446Z,350
2022-08-22T11:18:01.953Z,345
2022-08-22T11:19:03.084Z,340
2022-08-22T11:19:46.804Z,340
2022-08-22T11:20:44.430Z,335
2022-08-22T11:21:44.293Z,320
2022-08-22T11:22:45.396Z,340
2022-08-22T11:23:43.842Z,330
2022-08-22T11:25:08.445Z,315
2022-08-22T11:25:56.098Z,320
2022-08-22T11:26:59.446Z,320
2022-08-22T11:27:49.391Z,315
2022-08-22T11:28:43.633Z,310
2022-08-22T11:29:46.701Z,310
2022-08-22T11:30:57.549Z,315
2022-08-22T11:32:05.746Z,315
2022-08-22T11:32:44.228Z,330
2022-08-22T11:33:56.541Z,330
2022-08-22T11:34:47.204Z,330
2022-08-22T11:35:45.294Z,325
2022-08-22T11:36:50.173Z,320
2022-08-22T11:38:00.008Z,310
2022-08-22T11:38:45.612Z,310
2022-08-22T11:39:45.341Z,315
2022-08-22T11:40:46.320Z,315
2022-08-22T11:41:52.140Z,315
2022-08-22T11:42:56.611Z,310
2022-08-22T11:43:45.159Z,310
2022-08-22T11:44:57.990Z,300
2022-08-22T11:45:47.119Z,295
2022-08-22T11:46:45.480Z,290
2022-08-22T11:47:46.573Z,300
2022-08-22T11:48:49.766Z,310
2022-08-22T11:49:47.913Z,305
2022-08-22T11:50:48.790Z,295
2022-08-22T11:51:44.100Z,295
2022-08-22T11:52:44.726Z,295
2022-08-22T11:53:44.120Z,300
2022-08-22T11:54:48.682Z,325
2022-08-22T11:55:44.320Z,345
2022-08-22T11:56:51.374Z,355
2022-08-22T11:57:50.383Z,355
2022-08-22T11:58:44.368Z,355
2022-08-22T11:59:54.899Z,355
2022-08-22T12:00:48.865Z,350
2022-08-22T12:01:45.389Z,360
2022-08-22T12:02:49.764Z,355
2022-08-22T12:03:46.313Z,355
2022-08-22T12:04:49.182Z,355
2022-08-22T12:05:44.264Z,350
2022-08-22T12:06:49.684Z,345
2022-08-22T12:07:49.106Z,355
2022-08-22T12:08:44.658Z,355
2022-08-22T12:09:44.894Z,365
2022-08-22T12:10:46.786Z,365
2022-08-22T12:11:44.127Z,355
2022-08-22T12:12:46.676Z,350
2022-08-22T12:13:45.309Z,350
2022-08-22T12:14:48.002Z,350
2022-08-22T12:15:47.494Z,345
2022-08-22T12:16:47.510Z,325
2022-08-22T12:18:09.590Z,330
2022-08-22T12:18:47.142Z,330
2022-08-22T12:20:21.194Z,335
2022-08-22T12:20:50.039Z,335
2022-08-22T12:21:51.690Z,325
2022-08-22T12:22:53.196Z,315
2022-08-22T12:23:59.234Z,315
2022-08-22T12:24:46.324Z,325
2022-08-22T12:25:54.210Z,335
2022-08-22T12:26:49.301Z,335
2022-08-22T12:27:57.516Z,335
2022-08-22T12:28:44.763Z,335
2022-08-22T12:29:55.982Z,340
2022-08-22T12:30:44.474Z,335
2022-08-22T12:31:45.263Z,335
2022-08-22T12:32:51.416Z,335
2022-08-22T12:33:44.500Z,340
2022-08-22T12:34:48.530Z,330
2022-08-22T12:35:44.366Z,305
2022-08-22T12:36:43.979Z,300
2022-08-22T12:38:01.785Z,305
2022-08-22T12:38:49.208Z,315
2022-08-22T12:39:50.713Z,335
2022-08-22T12:40:51.495Z,345
2022-08-22T12:41:51.119Z,350
2022-08-22T12:42:50.689Z,360
2022-08-22T12:43:54.280Z,375
2022-08-22T12:44:43.937Z,385
2022-08-22T12:45:47.299Z,395
2022-08-22T12:46:53.760Z,395
2022-08-22T12:47:49.553Z,400
2022-08-22T12:48:44.542Z,400
2022-08-22T12:49:54.570Z,405
2022-08-22T12:50:45.359Z,405
2022-08-22T12:51:49.288Z,410
2022-08-22T12:52:46.419Z,410
2022-08-22T12:53:47.379Z,410
2022-08-22T12:54:44.480Z,410
2022-08-22T12:55:45.105Z,410
2022-08-22T12:56:52.228Z,405
2022-08-22T12:57:45.430Z,395
2022-08-22T12:58:46.027Z,385
2022-08-22T12:59:43.663Z,375
2022-08-22T13:00:47.686Z,375
2022-08-22T13:01:50.375Z,370
2022-08-22T13:02:44.088Z,370
2022-08-22T13:03:43.570Z,370
2022-08-22T13:04:44.968Z,375
2022-08-22T13:06:02.899Z,375
2022-08-22T13:06:51.144Z,375
2022-08-22T13:07:44.308Z,375
2022-08-22T13:08:44.792Z,375
2022-08-22T13:09:45.641Z,375
2022-08-22T13:10:47.499Z,370
2022-08-22T13:11:43.881Z,365
2022-08-22T13:12:49.481Z,365
2022-08-22T13:14:01.646Z,360
2022-08-22T13:14:47.974Z,360
2022-08-22T13:15:56.243Z,360
2022-08-22T13:16:55.411Z,360
2022-08-22T13:17:46.531Z,355
2022-08-22T13:18:55.924Z,355
2022-08-22T13:19:45.688Z,355
2022-08-22T13:20:48.928Z,355
2022-08-22T13:21:45.716Z,355
2022-08-22T13:22:50.156Z,355
2022-08-22T13:23:52.987Z,355
2022-08-22T13:25:00.465Z,350
2022-08-22T13:25:43.807Z,350
2022-08-22T13:26:53.915Z,345
2022-08-22T13:27:55.331Z,345
2022-08-22T13:28:44.316Z,340
2022-08-22T13:29:51.593Z,335
2022-08-22T13:30:50.394Z,335
2022-08-22T13:31:43.531Z,335
2022-08-22T13:32:49.275Z,330
2022-08-22T13:33:45.575Z,330
2022-08-22T13:34:51.213Z,325
2022-08-22T13:35:56.727Z,315
2022-08-22T13:36:53.997Z,310
2022-08-22T13:37:44.582Z,305
2022-08-22T13:38:54.953Z,295
2022-08-22T13:39:44.330Z,290
2022-08-22T13:40:46.555Z,290
2022-08-22T13:41:52.639Z,290
2022-08-22T13:42:56.303Z,295
2022-08-22T13:43:44.356Z,295
2022-08-22T13:44:47.082Z,300
2022-08-22T13:45:43.521Z,300
2022-08-22T13:47:19.033Z,295
2022-08-22T13:47:50.150Z,300
2022-08-22T13:48:49.603Z,305
2022-08-22T13:49:44.566Z,305
2022-08-22T13:51:04.601Z,305
2022-08-22T13:51:45.703Z,305
2022-08-22T13:52:57.714Z,300
2022-08-22T13:53:58.066Z,300
2022-08-22T13:54:49.731Z,295
2022-08-22T13:55:51.315Z,295
2022-08-22T13:56:52.855Z,285
2022-08-22T13:57:51.052Z,280
2022-08-22T13:58:45.204Z,275
2022-08-22T14:00:11.540Z,265
2022-08-22T14:01:03.090Z,265
2022-08-22T14:01:45.528Z,265
2022-08-22T14:02:47.834Z,260
2022-08-22T14:03:45.947Z,255
2022-08-22T14:04:47.833Z,255
2022-08-22T14:05:43.230Z,255
2022-08-22T14:06:50.639Z,255
2022-08-22T14:07:44.774Z,255
2022-08-22T14:08:50.651Z,255
2022-08-22T14:09:45.238Z,250
2022-08-22T14:10:47.537Z,240
2022-08-22T14:11:43.731Z,235
2022-08-22T14:12:59.942Z,225
2022-08-22T14:13:46.975Z,220
2022-08-22T14:14:45.962Z,215
2022-08-22T14:15:59.107Z,220
2022-08-22T14:16:44.834Z,220
2022-08-22T14:17:55.642Z,220
2022-08-22T14:18:53.292Z,220
2022-08-22T14:20:11.093Z,225
2022-08-22T14:20:46.355Z,225
2022-08-22T14:21:50.113Z,225
2022-08-22T14:22:44.820Z,230
2022-08-22T14:23:44.209Z,230
2022-08-22T14:25:03.470Z,235
2022-08-22T14:25:48.533Z,235
2022-08-22T14:27:00.049Z,235
2022-08-22T14:27:47.942Z,235
2022-08-22T14:28:44.758Z,235
2022-08-22T14:29:52.321Z,235
2022-08-22T14:30:43.690Z,235
2022-08-22T14:31:44.636Z,235
2022-08-22T14:32:48.727Z,230
2022-08-22T14:33:49.974Z,230
2022-08-22T14:34:47.605Z,235
2022-08-22T14:35:54.960Z,230
2022-08-22T14:36:47.271Z,230
2022-08-22T14:37:47.708Z,230
2022-08-22T14:38:50.996Z,225
2022-08-22T14:39:52.465Z,225
2022-08-22T14:40:44.651Z,215
2022-08-22T14:42:17.845Z,210
2022-08-22T14:42:52.901Z,205
2022-08-22T14:43:49.140Z,200
2022-08-22T14:44:44.702Z,200
2022-08-22T14:45:47.001Z,190
2022-08-22T14:46:44.401Z,185
2022-08-22T14:48:44.247Z,175
2022-08-22T14:48:56.028Z,175
2022-08-22T14:49:58.333Z,170
2022-08-22T14:50:57.318Z,170
2022-08-22T14:51:58.068Z,170
2022-08-22T14:52:53.908Z,165
2022-08-22T14:53:53.922Z,165
2022-08-22T14:54:57.830Z,160
2022-08-22T14:56:00.384Z,160
2022-08-22T14:56:54.177Z,155
2022-08-22T14:57:54.850Z,155
2022-08-22T14:58:55.153Z,155
2022-08-22T14:59:57.386Z,150
2022-08-22T15:00:56.956Z,150
2022-08-22T15:02:00.046Z,145
2022-08-22T15:02:53.692Z,145
2022-08-22T15:03:54.974Z,140
2022-08-22T15:04:57.236Z,140
2022-08-22T15:05:54.385Z,135
2022-08-22T15:06:58.491Z,135
2022-08-22T15:07:56.267Z,135
2022-08-22T15:08:57.590Z,135
2022-08-22T15:09:55.005Z,130
2022-08-22T15:10:55.331Z,130
2022-08-22T15:11:58.525Z,130
2022-08-22T15:12:55.371Z,130
2022-08-22T15:13:56.032Z,125
2022-08-22T15:15:01.406Z,125
2022-08-22T15:16:14.370Z,125
2022-08-22T15:16:55.223Z,125
2022-08-22T15:18:00.140Z,125
2022-08-22T15:19:00.814Z,125
2022-08-22T15:19:59.423Z,125
2022-08-22T15:21:02.773Z,125
2022-08-22T15:21:54.819Z,125
2022-08-22T15:22:55.039Z,125
2022-08-22T15:23:57.541Z,125
2022-08-22T15:25:00.723Z,120
2022-08-22T15:25:57.316Z,120
2022-08-22T15:27:08.984Z,120
2022-08-22T15:27:59.494Z,115
2022-08-22T15:29:02.704Z,115
2022-08-22T15:29:55.655Z,115
2022-08-22T15:31:05.856Z,115
2022-08-22T15:31:56.244Z,115
2022-08-22T15:32:55.670Z,115
2022-08-22T15:33:55.816Z,120
2022-08-22T15:34:59.536Z,120
2022-08-22T15:35:56.361Z,120
2022-08-22T15:36:58.362Z,120
2022-08-22T15:37:57.997Z,120
2022-08-22T15:38:57.294Z,120
2022-08-22T15:39:55.890Z,120
2022-08-22T15:40:55.054Z,120
2022-08-22T15:41:55.453Z,120
2022-08-22T15:42:56.546Z,120
2022-08-22T15:43:55.436Z,120
2022-08-22T15:44:55.348Z,115
2022-08-22T15:45:55.886Z,115
2022-08-22T15:46:56.005Z,115
2022-08-22T15:47:56.623Z,115
2022-08-22T15:49:04.164Z,115
2022-08-22T15:50:01.068Z,110
2022-08-22T15:50:58.371Z,110
2022-08-22T15:51:57.046Z,110
2022-08-22T15:53:14.260Z,110
2022-08-22T15:54:00.850Z,110
2022-08-22T15:55:01.902Z,110
2022-08-22T15:55:59.841Z,110
2022-08-22T15:56:56.157Z,110
2022-08-22T15:57:59.500Z,110
2022-08-22T15:58:59.704Z,110
2022-08-22T16:00:03.045Z,110
2022-08-22T16:00:55.578Z,110
2022-08-22T16:02:00.039Z,110
2022-08-22T16:02:57.084Z,110
2022-08-22T16:03:54.657Z,105
2022-08-22T16:04:54.628Z,105
2022-08-22T16:06:00.702Z,105
2022-08-22T16:06:58.528Z,100
2022-08-22T16:07:54.884Z,100
2022-08-22T16:08:54.869Z,100
2022-08-22T16:09:54.625Z,95
2022-08-22T16:10:56.276Z,95
2022-08-22T16:11:54.605Z,95
2022-08-22T16:12:54.127Z,95
2022-08-22T16:14:01.115Z,95
2022-08-22T16:14:54.850Z,95
2022-08-22T16:16:01.553Z,95
2022-08-22T16:16:54.844Z,95
2022-08-22T16:18:00.255Z,90
2022-08-22T16:18:54.839Z,90
2022-08-22T16:19:54.314Z,90
2022-08-22T16:20:54.578Z,90
2022-08-22T16:21:54.576Z,90
2022-08-22T16:22:56.724Z,95
2022-08-22T16:23:56.643Z,95
2022-08-22T16:24:57.633Z,100
2022-08-22T16:25:54.549Z,100
2022-08-22T16:26:54.550Z,105
2022-08-22T16:27:54.393Z,110
2022-08-22T16:29:07.457Z,115
2022-08-22T16:29:54.801Z,115
2022-08-22T16:30:59.238Z,115
2022-08-22T16:31:54.523Z,115
2022-08-22T16:32:54.795Z,115
2022-08-22T16:33:54.268Z,115
2022-08-22T16:34:54.259Z,115
2022-08-22T16:35:55.033Z,115
2022-08-22T16:36:54.753Z,115
2022-08-22T16:37:56.436Z,115
2022-08-22T16:38:54.253Z,115
2022-08-22T16:39:54.827Z,115
2022-08-22T16:40:54.239Z,115
2022-08-22T16:41:54.996Z,110
2022-08-22T16:42:54.494Z,110
2022-08-22T16:44:03.808Z,105
2022-08-22T16:44:54.771Z,105
2022-08-22T16:45:54.480Z,105
2022-08-22T16:46:54.732Z,100
2022-08-22T16:48:05.773Z,100
2022-08-22T16:48:54.455Z,105
2022-08-22T16:49:54.207Z,95
2022-08-22T16:50:59.967Z,95
2022-08-22T16:51:54.190Z,95
2022-08-22T16:52:54.449Z,95
2022-08-22T16:53:55.453Z,95
2022-08-22T16:54:54.671Z,95
2022-08-22T16:55:54.686Z,90
2022-08-22T16:56:54.435Z,90
2022-08-22T16:58:15.402Z,90
2022-08-22T16:59:28.283Z,90
2022-08-22T16:59:54.683Z,90
2022-08-22T17:01:02.462Z,85
2022-08-22T17:01:54.780Z,85
2022-08-22T17:02:54.416Z,80
2022-08-22T17:03:54.407Z,80
2022-08-22T17:04:54.392Z,75
2022-08-22T17:05:54.651Z,75
2022-08-22T17:06:53.910Z,70
2022-08-22T17:07:54.760Z,70
2022-08-22T17:08:54.647Z,70
2022-08-22T17:09:54.626Z,65
2022-08-22T17:10:54.121Z,65
2022-08-22T17:11:54.636Z,60
2022-08-22T17:12:54.617Z,60
2022-08-22T17:13:54.365Z,60
2022-08-22T17:14:54.405Z,55
2022-08-22T17:15:54.607Z,55
2022-08-22T17:17:00.294Z,55
2022-08-22T17:17:54.643Z,55
2022-08-22T17:18:54.587Z,55
2022-08-22T17:19:55.524Z,55
2022-08-22T17:20:53.818Z,55
2022-08-22T17:22:03.476Z,55
2022-08-22T17:22:54.077Z,50
2022-08-22T17:23:54.319Z,50
2022-08-22T17:24:54.310Z,50
2022-08-22T17:25:54.591Z,50
2022-08-22T17:26:58.763Z,45
2022-08-22T17:27:54.088Z,45
2022-08-22T17:28:54.562Z,45
2022-08-22T17:29:54.557Z,40
2022-08-22T17:30:54.279Z,40
2022-08-22T17:31:54.281Z,40
2022-08-22T17:33:06.200Z,35
2022-08-22T17:34:00.467Z,35
2022-08-22T17:34:54.265Z,35
2022-08-22T17:35:54.525Z,30
2022-08-22T17:36:54.273Z,30
2022-08-22T17:37:54.264Z,30
2022-08-22T17:38:54.239Z,30
2022-08-22T17:40:00.810Z,30
2022-08-22T17:40:54.501Z,30
2022-08-22T17:41:54.500Z,30
2022-08-22T17:42:54.232Z,25
2022-08-22T17:43:58.753Z,25
2022-08-22T17:44:54.221Z,25
2022-08-22T17:45:54.730Z,25
2022-08-22T17:46:53.960Z,25
2022-08-22T17:47:54.365Z,25
2022-08-22T17:48:53.692Z,20
2022-08-22T17:49:54.820Z,20
2022-08-22T17:50:55.310Z,20
2022-08-22T17:51:53.937Z,20
2022-08-22T17:52:54.445Z,15
2022-08-22T17:53:54.681Z,15
2022-08-22T17:54:54.166Z,20
2022-08-22T17:55:53.918Z,20
2022-08-22T17:57:10.705Z,20
2022-08-22T17:57:54.495Z,20
2022-08-22T17:58:54.401Z,15
2022-08-22T17:59:54.240Z,15
2022-08-22T18:00:54.489Z,15
2022-08-22T18:01:54.637Z,15
2022-08-22T18:02:54.152Z,10
2022-08-22T18:03:53.613Z,10
2022-08-22T18:04:56.693Z,10
2022-08-22T18:05:54.104Z,10
2022-08-22T18:07:01.070Z,10
2022-08-22T18:07:54.361Z,10
2022-08-22T18:09:24.106Z,10
2022-08-22T18:09:54.367Z,10
2022-08-22T18:10:54.362Z,10
2022-08-22T18:11:54.346Z,5
2022-08-22T18:12:56.272Z,5
2022-08-22T18:13:54.367Z,5
2022-08-22T18:14:54.577Z,5
2022-08-22T18:15:54.319Z,5
2022-08-22T18:16:54.298Z,5
2022-08-22T18:17:53.802Z,5
2022-08-22T18:18:54.114Z,5
2022-08-22T18:19:53.779Z,0
2022-08-22T18:20:54.289Z,0
2022-08-22T18:21:54.296Z,0
2022-08-22T18:22:54.137Z,0
2022-08-22T18:23:55.721Z,0
2022-08-22T18:24:56.156Z,0
2022-08-22T18:25:54.632Z,0
2022-08-22T18:26:54.511Z,0
2022-08-22T18:27:54.355Z,0
2022-08-22T18:28:54.441Z,0
2022-08-22T18:29:56.012Z,0